sensor_id;sensor_type;location;lat;lon;timestamp;P1;durP1;ratioP1;P2;durP2;ratioP2
3131;SDS011;62090;52.330;9.104;2022-09-13T00:01:19;6.97;;;4.70;;
3131;SDS011;62090;52.330;9.104;2022-09-13T00:03:49;6.10;;;4.40;;
3131;SDS011;62090;52.330;9.104;2022-09-13T00:06:19;4.37;;;3.97;;
3131;SDS011;62090;52.330;9.104;2022-09-13T00:08:49;6.30;;;5.53;;
3131;SDS011;62090;52.330;9.104;2022-09-13T00:11:22;4.80;;;4.03;;
3131;SDS011;62090;52.330;9.104;2022-09-13T00:13:54;5.43;;;4.57;;
3131;SDS011;62090;52.330;9.104;2022-09-13T00:16:25;6.60;;;4.87;;
3131;SDS011;62090;52.330;9.104;2022-09-13T00:18:58;6.03;;;4.63;;
3131;SDS011;62090;52.330;9.104;2022-09-13T00:21:28;10.83;;;5.07;;
3131;SDS011;62090;52.330;9.104;2022-09-13T00:23:58;5.70;;;4.33;;
3131;SDS011;62090;52.330;9.104;2022-09-13T00:26:30;6.50;;;4.73;;
3131;SDS011;62090;52.330;9.104;2022-09-13T00:29:00;6.23;;;4.50;;
3131;SDS011;62090;52.330;9.104;2022-09-13T00:31:30;5.67;;;4.20;;
3131;SDS011;62090;52.330;9.104;2022-09-13T00:33:59;5.93;;;4.47;;
3131;SDS011;62090;52.330;9.104;2022-09-13T00:36:29;9.40;;;4.73;;
3131;SDS011;62090;52.330;9.104;2022-09-13T00:38:59;5.80;;;5.07;;
3131;SDS011;62090;52.330;9.104;2022-09-13T00:41:32;5.50;;;4.60;;
3131;SDS011;62090;52.330;9.104;2022-09-13T00:44:02;6.83;;;4.07;;
3131;SDS011;62090;52.330;9.104;2022-09-13T00:46:33;8.80;;;4.20;;
3131;SDS011;62090;52.330;9.104;2022-09-13T00:49:10;6.60;;;4.50;;
3131;SDS011;62090;52.330;9.104;2022-09-13T00:51:43;11.70;;;4.40;;
3131;SDS011;62090;52.330;9.104;2022-09-13T00:54:17;5.80;;;4.60;;
3131;SDS011;62090;52.330;9.104;2022-09-13T00:56:52;5.43;;;3.90;;
3131;SDS011;62090;52.330;9.104;2022-09-13T00:59:27;4.97;;;3.83;;
3131;SDS011;62090;52.330;9.104;2022-09-13T01:02:02;9.80;;;4.90;;
3131;SDS011;62090;52.330;9.104;2022-09-13T01:04:32;8.07;;;4.20;;
3131;SDS011;62090;52.330;9.104;2022-09-13T01:07:06;8.53;;;5.23;;
3131;SDS011;62090;52.330;9.104;2022-09-13T01:09:38;10.90;;;4.33;;
3131;SDS011;62090;52.330;9.104;2022-09-13T01:12:16;5.30;;;4.40;;
3131;SDS011;62090;52.330;9.104;2022-09-13T01:14:54;5.53;;;4.07;;
3131;SDS011;62090;52.330;9.104;2022-09-13T01:17:27;6.87;;;4.80;;
3131;SDS011;62090;52.330;9.104;2022-09-13T01:19:58;5.63;;;4.17;;
3131;SDS011;62090;52.330;9.104;2022-09-13T01:22:44;6.20;;;3.93;;
3131;SDS011;62090;52.330;9.104;2022-09-13T01:25:40;6.40;;;4.27;;
3131;SDS011;62090;52.330;9.104;2022-09-13T01:28:40;5.80;;;4.50;;
3131;SDS011;62090;52.330;9.104;2022-09-13T01:31:29;8.60;;;5.20;;
3131;SDS011;62090;52.330;9.104;2022-09-13T01:34:09;4.63;;;4.17;;
3131;SDS011;62090;52.330;9.104;2022-09-13T01:36:55;6.27;;;4.70;;
3131;SDS011;62090;52.330;9.104;2022-09-13T01:39:42;5.93;;;4.40;;
3131;SDS011;62090;52.330;9.104;2022-09-13T01:42:27;5.13;;;4.53;;
3131;SDS011;62090;52.330;9.104;2022-09-13T01:45:10;5.27;;;4.10;;
3131;SDS011;62090;52.330;9.104;2022-09-13T01:47:53;4.77;;;4.27;;
3131;SDS011;62090;52.330;9.104;2022-09-13T01:50:29;5.20;;;4.00;;
3131;SDS011;62090;52.330;9.104;2022-09-13T01:53:09;8.07;;;4.20;;
3131;SDS011;62090;52.330;9.104;2022-09-13T01:55:49;5.40;;;4.90;;
3131;SDS011;62090;52.330;9.104;2022-09-13T01:58:26;6.97;;;5.53;;
3131;SDS011;62090;52.330;9.104;2022-09-13T02:01:02;7.30;;;5.20;;
3131;SDS011;62090;52.330;9.104;2022-09-13T02:03:40;6.93;;;4.97;;
3131;SDS011;62090;52.330;9.104;2022-09-13T02:06:14;10.27;;;5.60;;
3131;SDS011;62090;52.330;9.104;2022-09-13T02:08:48;12.70;;;5.60;;
3131;SDS011;62090;52.330;9.104;2022-09-13T02:11:23;5.63;;;4.70;;
3131;SDS011;62090;52.330;9.104;2022-09-13T02:13:54;6.43;;;5.00;;
3131;SDS011;62090;52.330;9.104;2022-09-13T02:16:29;9.70;;;5.30;;
3131;SDS011;62090;52.330;9.104;2022-09-13T02:19:06;6.70;;;5.50;;
3131;SDS011;62090;52.330;9.104;2022-09-13T02:21:40;8.97;;;5.57;;
3131;SDS011;62090;52.330;9.104;2022-09-13T02:24:12;8.50;;;5.37;;
3131;SDS011;62090;52.330;9.104;2022-09-13T02:26:45;10.27;;;5.80;;
3131;SDS011;62090;52.330;9.104;2022-09-13T02:29:19;7.90;;;5.13;;
3131;SDS011;62090;52.330;9.104;2022-09-13T02:31:54;6.13;;;4.83;;
3131;SDS011;62090;52.330;9.104;2022-09-13T02:34:29;11.13;;;6.00;;
3131;SDS011;62090;52.330;9.104;2022-09-13T02:37:02;10.63;;;6.00;;
3131;SDS011;62090;52.330;9.104;2022-09-13T02:39:35;5.47;;;4.77;;
3131;SDS011;62090;52.330;9.104;2022-09-13T02:42:13;6.90;;;5.70;;
3131;SDS011;62090;52.330;9.104;2022-09-13T02:44:48;7.60;;;6.07;;
3131;SDS011;62090;52.330;9.104;2022-09-13T02:47:30;7.27;;;6.30;;
3131;SDS011;62090;52.330;9.104;2022-09-13T02:50:13;8.07;;;6.13;;
3131;SDS011;62090;52.330;9.104;2022-09-13T02:52:55;7.40;;;6.70;;
3131;SDS011;62090;52.330;9.104;2022-09-13T02:55:33;12.70;;;6.37;;
3131;SDS011;62090;52.330;9.104;2022-09-13T02:58:10;9.00;;;6.70;;
3131;SDS011;62090;52.330;9.104;2022-09-13T03:00:42;8.13;;;6.70;;
3131;SDS011;62090;52.330;9.104;2022-09-13T03:03:13;10.20;;;7.27;;
3131;SDS011;62090;52.330;9.104;2022-09-13T03:05:47;11.87;;;7.40;;
3131;SDS011;62090;52.330;9.104;2022-09-13T03:08:16;10.77;;;7.37;;
3131;SDS011;62090;52.330;9.104;2022-09-13T03:10:49;7.87;;;7.07;;
3131;SDS011;62090;52.330;9.104;2022-09-13T03:13:33;9.40;;;8.13;;
3131;SDS011;62090;52.330;9.104;2022-09-13T03:19:10;12.03;;;8.00;;
3131;SDS011;62090;52.330;9.104;2022-09-13T03:21:57;13.93;;;8.43;;
3131;SDS011;62090;52.330;9.104;2022-09-13T03:24:42;9.40;;;7.20;;
3131;SDS011;62090;52.330;9.104;2022-09-13T03:27:22;11.23;;;8.13;;
3131;SDS011;62090;52.330;9.104;2022-09-13T03:30:02;9.83;;;7.90;;
3131;SDS011;62090;52.330;9.104;2022-09-13T03:32:35;10.10;;;8.33;;
3131;SDS011;62090;52.330;9.104;2022-09-13T03:35:14;16.33;;;8.50;;
3131;SDS011;62090;52.330;9.104;2022-09-13T03:37:54;10.73;;;7.90;;
3131;SDS011;62090;52.330;9.104;2022-09-13T03:40:31;9.33;;;7.83;;
3131;SDS011;62090;52.330;9.104;2022-09-13T03:43:09;10.53;;;8.10;;
3131;SDS011;62090;52.330;9.104;2022-09-13T03:45:45;9.80;;;8.00;;
3131;SDS011;62090;52.330;9.104;2022-09-13T03:48:17;11.50;;;8.40;;
3131;SDS011;62090;52.330;9.104;2022-09-13T03:50:49;17.23;;;8.30;;
3131;SDS011;62090;52.330;9.104;2022-09-13T03:53:22;10.27;;;8.10;;
3131;SDS011;62090;52.330;9.104;2022-09-13T03:55:54;11.10;;;7.97;;
3131;SDS011;62090;52.330;9.104;2022-09-13T03:58:24;9.13;;;7.77;;
3131;SDS011;62090;52.330;9.104;2022-09-13T04:00:54;10.83;;;7.73;;
3131;SDS011;62090;52.330;9.104;2022-09-13T04:03:24;9.53;;;7.87;;
3131;SDS011;62090;52.330;9.104;2022-09-13T04:05:53;12.67;;;8.00;;
3131;SDS011;62090;52.330;9.104;2022-09-13T04:08:26;10.20;;;7.30;;
3131;SDS011;62090;52.330;9.104;2022-09-13T04:10:55;8.60;;;7.40;;
3131;SDS011;62090;52.330;9.104;2022-09-13T04:13:26;12.67;;;8.70;;
3131;SDS011;62090;52.330;9.104;2022-09-13T04:15:58;8.07;;;7.27;;
3131;SDS011;62090;52.330;9.104;2022-09-13T04:18:29;8.63;;;7.17;;
3131;SDS011;62090;52.330;9.104;2022-09-13T04:20:59;8.63;;;7.37;;
3131;SDS011;62090;52.330;9.104;2022-09-13T04:23:32;10.97;;;7.73;;
3131;SDS011;62090;52.330;9.104;2022-09-13T04:26:02;11.10;;;8.50;;
3131;SDS011;62090;52.330;9.104;2022-09-13T04:28:33;10.03;;;8.93;;
3131;SDS011;62090;52.330;9.104;2022-09-13T04:31:02;9.23;;;7.33;;
3131;SDS011;62090;52.330;9.104;2022-09-13T04:33:32;12.83;;;7.67;;
3131;SDS011;62090;52.330;9.104;2022-09-13T04:36:02;8.10;;;7.30;;
3131;SDS011;62090;52.330;9.104;2022-09-13T04:38:35;9.10;;;7.70;;
3131;SDS011;62090;52.330;9.104;2022-09-13T04:41:05;8.23;;;7.43;;
3131;SDS011;62090;52.330;9.104;2022-09-13T04:43:36;10.17;;;7.70;;
3131;SDS011;62090;52.330;9.104;2022-09-13T04:46:05;9.90;;;7.00;;
3131;SDS011;62090;52.330;9.104;2022-09-13T04:48:35;8.20;;;7.33;;
3131;SDS011;62090;52.330;9.104;2022-09-13T04:51:05;13.50;;;7.40;;
3131;SDS011;62090;52.330;9.104;2022-09-13T04:53:37;10.20;;;7.17;;
3131;SDS011;62090;52.330;9.104;2022-09-13T04:56:07;9.13;;;7.30;;
3131;SDS011;62090;52.330;9.104;2022-09-13T04:58:39;14.63;;;7.57;;
3131;SDS011;62090;52.330;9.104;2022-09-13T05:01:13;8.93;;;7.40;;
3131;SDS011;62090;52.330;9.104;2022-09-13T05:03:43;10.97;;;6.90;;
3131;SDS011;62090;52.330;9.104;2022-09-13T05:06:13;12.00;;;8.80;;
3131;SDS011;62090;52.330;9.104;2022-09-13T05:08:51;10.50;;;8.30;;
3131;SDS011;62090;52.330;9.104;2022-09-13T05:11:21;12.53;;;7.97;;
3131;SDS011;62090;52.330;9.104;2022-09-13T05:13:54;8.00;;;7.10;;
3131;SDS011;62090;52.330;9.104;2022-09-13T05:16:26;12.30;;;8.30;;
3131;SDS011;62090;52.330;9.104;2022-09-13T05:18:58;10.20;;;7.80;;
3131;SDS011;62090;52.330;9.104;2022-09-13T05:21:29;10.33;;;8.40;;
3131;SDS011;62090;52.330;9.104;2022-09-13T05:24:03;8.53;;;7.33;;
3131;SDS011;62090;52.330;9.104;2022-09-13T05:26:34;11.93;;;8.43;;
3131;SDS011;62090;52.330;9.104;2022-09-13T05:29:04;9.23;;;7.60;;
3131;SDS011;62090;52.330;9.104;2022-09-13T05:31:37;9.13;;;7.47;;
3131;SDS011;62090;52.330;9.104;2022-09-13T05:34:09;10.73;;;8.20;;
3131;SDS011;62090;52.330;9.104;2022-09-13T05:36:40;10.93;;;8.17;;
3131;SDS011;62090;52.330;9.104;2022-09-13T05:39:14;21.07;;;8.40;;
3131;SDS011;62090;52.330;9.104;2022-09-13T05:42:07;21.10;;;8.40;;
3131;SDS011;62090;52.330;9.104;2022-09-13T05:44:37;9.53;;;7.53;;
3131;SDS011;62090;52.330;9.104;2022-09-13T05:47:07;14.90;;;8.03;;
3131;SDS011;62090;52.330;9.104;2022-09-13T05:49:41;11.83;;;8.47;;
3131;SDS011;62090;52.330;9.104;2022-09-13T05:52:31;10.00;;;8.00;;
3131;SDS011;62090;52.330;9.104;2022-09-13T05:55:03;13.80;;;7.97;;
3131;SDS011;62090;52.330;9.104;2022-09-13T05:57:34;8.90;;;8.00;;
3131;SDS011;62090;52.330;9.104;2022-09-13T06:00:05;16.30;;;8.87;;
3131;SDS011;62090;52.330;9.104;2022-09-13T06:02:39;17.20;;;10.40;;
3131;SDS011;62090;52.330;9.104;2022-09-13T06:05:10;21.20;;;10.17;;
3131;SDS011;62090;52.330;9.104;2022-09-13T06:07:40;15.77;;;10.10;;
3131;SDS011;62090;52.330;9.104;2022-09-13T06:10:13;13.37;;;8.87;;
3131;SDS011;62090;52.330;9.104;2022-09-13T06:12:43;12.30;;;7.20;;
3131;SDS011;62090;52.330;9.104;2022-09-13T06:15:13;10.23;;;7.50;;
3131;SDS011;62090;52.330;9.104;2022-09-13T06:17:42;11.93;;;7.30;;
3131;SDS011;62090;52.330;9.104;2022-09-13T06:20:12;9.60;;;7.90;;
3131;SDS011;62090;52.330;9.104;2022-09-13T06:22:43;8.10;;;6.80;;
3131;SDS011;62090;52.330;9.104;2022-09-13T06:25:19;10.90;;;7.90;;
3131;SDS011;62090;52.330;9.104;2022-09-13T06:27:48;12.37;;;7.80;;
3131;SDS011;62090;52.330;9.104;2022-09-13T06:30:18;9.23;;;7.00;;
3131;SDS011;62090;52.330;9.104;2022-09-13T06:32:48;9.80;;;7.20;;
3131;SDS011;62090;52.330;9.104;2022-09-13T06:35:19;10.67;;;8.00;;
3131;SDS011;62090;52.330;9.104;2022-09-13T06:37:53;19.47;;;7.70;;
3131;SDS011;62090;52.330;9.104;2022-09-13T06:40:26;10.00;;;6.73;;
3131;SDS011;62090;52.330;9.104;2022-09-13T06:43:00;10.20;;;6.97;;
3131;SDS011;62090;52.330;9.104;2022-09-13T06:45:31;9.03;;;6.90;;
3131;SDS011;62090;52.330;9.104;2022-09-13T06:48:01;9.53;;;6.83;;
3131;SDS011;62090;52.330;9.104;2022-09-13T06:50:31;7.77;;;6.70;;
3131;SDS011;62090;52.330;9.104;2022-09-13T06:53:01;7.00;;;6.30;;
3131;SDS011;62090;52.330;9.104;2022-09-13T06:55:34;8.93;;;6.80;;
3131;SDS011;62090;52.330;9.104;2022-09-13T06:58:04;7.03;;;6.23;;
3131;SDS011;62090;52.330;9.104;2022-09-13T07:00:34;7.80;;;6.63;;
3131;SDS011;62090;52.330;9.104;2022-09-13T07:03:07;7.90;;;7.00;;
3131;SDS011;62090;52.330;9.104;2022-09-13T07:05:39;8.40;;;6.67;;
3131;SDS011;62090;52.330;9.104;2022-09-13T07:08:09;9.03;;;7.40;;
3131;SDS011;62090;52.330;9.104;2022-09-13T07:10:46;11.80;;;8.40;;
3131;SDS011;62090;52.330;9.104;2022-09-13T07:13:15;11.17;;;7.57;;
3131;SDS011;62090;52.330;9.104;2022-09-13T07:15:47;9.73;;;7.60;;
3131;SDS011;62090;52.330;9.104;2022-09-13T07:18:17;10.60;;;7.60;;
3131;SDS011;62090;52.330;9.104;2022-09-13T07:20:47;14.53;;;7.47;;
3131;SDS011;62090;52.330;9.104;2022-09-13T07:23:21;11.17;;;8.00;;
3131;SDS011;62090;52.330;9.104;2022-09-13T07:25:56;16.07;;;8.57;;
3131;SDS011;62090;52.330;9.104;2022-09-13T07:28:32;16.50;;;9.33;;
3131;SDS011;62090;52.330;9.104;2022-09-13T07:31:04;12.00;;;8.90;;
3131;SDS011;62090;52.330;9.104;2022-09-13T07:33:35;14.20;;;8.13;;
3131;SDS011;62090;52.330;9.104;2022-09-13T07:36:06;15.43;;;9.03;;
3131;SDS011;62090;52.330;9.104;2022-09-13T07:38:38;12.00;;;9.30;;
3131;SDS011;62090;52.330;9.104;2022-09-13T07:41:13;11.93;;;9.33;;
3131;SDS011;62090;52.330;9.104;2022-09-13T07:43:44;10.87;;;8.77;;
3131;SDS011;62090;52.330;9.104;2022-09-13T07:46:15;13.50;;;9.20;;
3131;SDS011;62090;52.330;9.104;2022-09-13T07:48:47;20.50;;;8.73;;
3131;SDS011;62090;52.330;9.104;2022-09-13T07:51:18;15.93;;;8.50;;
3131;SDS011;62090;52.330;9.104;2022-09-13T07:53:49;10.93;;;8.87;;
3131;SDS011;62090;52.330;9.104;2022-09-13T07:56:26;11.73;;;9.07;;
3131;SDS011;62090;52.330;9.104;2022-09-13T07:58:59;14.80;;;9.07;;
3131;SDS011;62090;52.330;9.104;2022-09-13T08:01:33;11.37;;;8.60;;
3131;SDS011;62090;52.330;9.104;2022-09-13T08:04:04;13.70;;;8.80;;
3131;SDS011;62090;52.330;9.104;2022-09-13T08:06:36;16.87;;;9.17;;
3131;SDS011;62090;52.330;9.104;2022-09-13T08:09:09;11.70;;;8.20;;
3131;SDS011;62090;52.330;9.104;2022-09-13T08:11:44;17.67;;;9.10;;
3131;SDS011;62090;52.330;9.104;2022-09-13T08:14:16;14.17;;;8.03;;
3131;SDS011;62090;52.330;9.104;2022-09-13T08:16:47;10.93;;;7.23;;
3131;SDS011;62090;52.330;9.104;2022-09-13T08:19:17;13.23;;;8.20;;
3131;SDS011;62090;52.330;9.104;2022-09-13T08:21:48;11.87;;;8.07;;
3131;SDS011;62090;52.330;9.104;2022-09-13T08:24:18;10.07;;;8.27;;
3131;SDS011;62090;52.330;9.104;2022-09-13T08:26:53;14.13;;;8.60;;
3131;SDS011;62090;52.330;9.104;2022-09-13T08:29:23;14.40;;;9.40;;
3131;SDS011;62090;52.330;9.104;2022-09-13T08:31:53;9.37;;;7.60;;
3131;SDS011;62090;52.330;9.104;2022-09-13T08:34:23;14.47;;;8.83;;
3131;SDS011;62090;52.330;9.104;2022-09-13T08:36:52;11.70;;;8.23;;
3131;SDS011;62090;52.330;9.104;2022-09-13T08:39:22;11.60;;;7.53;;
3131;SDS011;62090;52.330;9.104;2022-09-13T08:42:03;16.33;;;9.17;;
3131;SDS011;62090;52.330;9.104;2022-09-13T08:44:43;11.20;;;9.20;;
3131;SDS011;62090;52.330;9.104;2022-09-13T08:47:34;11.57;;;8.30;;
3131;SDS011;62090;52.330;9.104;2022-09-13T08:50:10;14.57;;;8.47;;
3131;SDS011;62090;52.330;9.104;2022-09-13T08:52:46;13.73;;;8.73;;
3131;SDS011;62090;52.330;9.104;2022-09-13T08:55:23;10.00;;;8.67;;
3131;SDS011;62090;52.330;9.104;2022-09-13T08:58:02;18.63;;;9.93;;
3131;SDS011;62090;52.330;9.104;2022-09-13T09:00:37;16.63;;;9.10;;
3131;SDS011;62090;52.330;9.104;2022-09-13T09:03:17;16.70;;;9.17;;
3131;SDS011;62090;52.330;9.104;2022-09-13T09:05:53;14.40;;;9.90;;
3131;SDS011;62090;52.330;9.104;2022-09-13T09:08:26;13.37;;;9.90;;
3131;SDS011;62090;52.330;9.104;2022-09-13T09:11:01;15.60;;;10.80;;
3131;SDS011;62090;52.330;9.104;2022-09-13T09:13:40;17.70;;;10.47;;
3131;SDS011;62090;52.330;9.104;2022-09-13T09:16:23;18.03;;;10.30;;
3131;SDS011;62090;52.330;9.104;2022-09-13T09:19:09;17.10;;;10.60;;
3131;SDS011;62090;52.330;9.104;2022-09-13T09:21:45;12.63;;;10.30;;
3131;SDS011;62090;52.330;9.104;2022-09-13T09:24:19;15.00;;;11.20;;
3131;SDS011;62090;52.330;9.104;2022-09-13T09:26:51;17.50;;;10.83;;
3131;SDS011;62090;52.330;9.104;2022-09-13T09:29:25;17.00;;;11.67;;
3131;SDS011;62090;52.330;9.104;2022-09-13T09:32:02;18.17;;;11.13;;
3131;SDS011;62090;52.330;9.104;2022-09-13T09:34:47;20.33;;;12.10;;
3131;SDS011;62090;52.330;9.104;2022-09-13T09:37:27;18.60;;;11.00;;
3131;SDS011;62090;52.330;9.104;2022-09-13T09:39:58;15.13;;;10.70;;
3131;SDS011;62090;52.330;9.104;2022-09-13T09:42:34;15.70;;;12.13;;
3131;SDS011;62090;52.330;9.104;2022-09-13T09:45:22;15.70;;;11.87;;
3131;SDS011;62090;52.330;9.104;2022-09-13T09:47:55;23.00;;;13.00;;
3131;SDS011;62090;52.330;9.104;2022-09-13T09:50:31;16.87;;;12.27;;
3131;SDS011;62090;52.330;9.104;2022-09-13T09:53:07;15.73;;;11.10;;
3131;SDS011;62090;52.330;9.104;2022-09-13T09:55:43;20.60;;;12.87;;
3131;SDS011;62090;52.330;9.104;2022-09-13T09:58:15;22.67;;;12.70;;
3131;SDS011;62090;52.330;9.104;2022-09-13T10:00:52;20.60;;;11.50;;
3131;SDS011;62090;52.330;9.104;2022-09-13T10:03:24;18.70;;;12.43;;
3131;SDS011;62090;52.330;9.104;2022-09-13T10:06:02;13.13;;;11.07;;
3131;SDS011;62090;52.330;9.104;2022-09-13T10:08:34;12.80;;;10.20;;
3131;SDS011;62090;52.330;9.104;2022-09-13T10:11:07;14.67;;;10.37;;
3131;SDS011;62090;52.330;9.104;2022-09-13T10:13:38;16.90;;;11.10;;
3131;SDS011;62090;52.330;9.104;2022-09-13T10:16:32;17.33;;;11.80;;
3131;SDS011;62090;52.330;9.104;2022-09-13T10:19:20;15.37;;;11.60;;
3131;SDS011;62090;52.330;9.104;2022-09-13T10:21:58;18.63;;;11.90;;
3131;SDS011;62090;52.330;9.104;2022-09-13T10:24:31;16.33;;;12.10;;
3131;SDS011;62090;52.330;9.104;2022-09-13T10:27:01;23.80;;;12.77;;
3131;SDS011;62090;52.330;9.104;2022-09-13T10:29:33;18.27;;;12.67;;
3131;SDS011;62090;52.330;9.104;2022-09-13T10:32:08;22.83;;;14.13;;
3131;SDS011;62090;52.330;9.104;2022-09-13T10:34:41;18.30;;;13.90;;
3131;SDS011;62090;52.330;9.104;2022-09-13T10:37:15;20.70;;;14.77;;
3131;SDS011;62090;52.330;9.104;2022-09-13T10:39:51;26.80;;;15.60;;
3131;SDS011;62090;52.330;9.104;2022-09-13T10:42:25;20.43;;;14.17;;
3131;SDS011;62090;52.330;9.104;2022-09-13T10:44:57;21.70;;;15.60;;
3131;SDS011;62090;52.330;9.104;2022-09-13T10:47:33;21.00;;;15.60;;
3131;SDS011;62090;52.330;9.104;2022-09-13T10:50:11;19.60;;;14.40;;
3131;SDS011;62090;52.330;9.104;2022-09-13T10:52:47;21.50;;;15.17;;
3131;SDS011;62090;52.330;9.104;2022-09-13T10:55:24;20.90;;;15.10;;
3131;SDS011;62090;52.330;9.104;2022-09-13T10:58:13;24.87;;;15.10;;
3131;SDS011;62090;52.330;9.104;2022-09-13T11:00:51;21.90;;;16.07;;
3131;SDS011;62090;52.330;9.104;2022-09-13T11:03:45;23.13;;;16.27;;
3131;SDS011;62090;52.330;9.104;2022-09-13T11:06:27;23.97;;;15.33;;
3131;SDS011;62090;52.330;9.104;2022-09-13T11:09:07;17.67;;;14.57;;
3131;SDS011;62090;52.330;9.104;2022-09-13T11:11:46;23.07;;;14.70;;
3131;SDS011;62090;52.330;9.104;2022-09-13T11:14:30;22.23;;;16.37;;
3131;SDS011;62090;52.330;9.104;2022-09-13T11:17:14;29.23;;;17.20;;
3131;SDS011;62090;52.330;9.104;2022-09-13T11:20:02;22.90;;;15.77;;
3131;SDS011;62090;52.330;9.104;2022-09-13T11:23:02;23.00;;;16.00;;
3131;SDS011;62090;52.330;9.104;2022-09-13T11:25:56;16.93;;;12.90;;
3131;SDS011;62090;52.330;9.104;2022-09-13T11:28:44;21.73;;;13.17;;
3131;SDS011;62090;52.330;9.104;2022-09-13T11:31:28;27.40;;;15.17;;
3131;SDS011;62090;52.330;9.104;2022-09-13T11:34:10;23.70;;;13.53;;
3131;SDS011;62090;52.330;9.104;2022-09-13T11:39:55;22.50;;;12.70;;
3131;SDS011;62090;52.330;9.104;2022-09-13T11:42:37;22.90;;;12.33;;
3131;SDS011;62090;52.330;9.104;2022-09-13T11:45:20;21.90;;;11.97;;
3131;SDS011;62090;52.330;9.104;2022-09-13T11:48:00;16.83;;;11.00;;
3131;SDS011;62090;52.330;9.104;2022-09-13T11:50:48;18.87;;;11.63;;
3131;SDS011;62090;52.330;9.104;2022-09-13T11:53:35;21.80;;;11.63;;
3131;SDS011;62090;52.330;9.104;2022-09-13T11:56:20;17.53;;;10.63;;
3131;SDS011;62090;52.330;9.104;2022-09-13T11:58:55;22.00;;;11.97;;
3131;SDS011;62090;52.330;9.104;2022-09-13T12:01:31;14.53;;;10.80;;
3131;SDS011;62090;52.330;9.104;2022-09-13T12:04:09;10.17;;;7.10;;
3131;SDS011;62090;52.330;9.104;2022-09-13T12:06:50;9.80;;;5.00;;
3131;SDS011;62090;52.330;9.104;2022-09-13T12:09:28;5.60;;;4.40;;
3131;SDS011;62090;52.330;9.104;2022-09-13T12:12:04;8.70;;;4.57;;
3131;SDS011;62090;52.330;9.104;2022-09-13T12:14:39;6.03;;;3.50;;
3131;SDS011;62090;52.330;9.104;2022-09-13T12:17:16;7.10;;;4.20;;
3131;SDS011;62090;52.330;9.104;2022-09-13T12:19:54;5.20;;;4.10;;
3131;SDS011;62090;52.330;9.104;2022-09-13T12:22:31;8.57;;;4.23;;
3131;SDS011;62090;52.330;9.104;2022-09-13T12:25:09;8.50;;;4.10;;
3131;SDS011;62090;52.330;9.104;2022-09-13T12:27:49;9.27;;;4.53;;
3131;SDS011;62090;52.330;9.104;2022-09-13T12:30:26;7.80;;;3.80;;
3131;SDS011;62090;52.330;9.104;2022-09-13T12:33:04;6.07;;;3.87;;
3131;SDS011;62090;52.330;9.104;2022-09-13T12:35:35;5.27;;;2.80;;
3131;SDS011;62090;52.330;9.104;2022-09-13T12:38:15;10.20;;;3.77;;
3131;SDS011;62090;52.330;9.104;2022-09-13T12:41:17;6.00;;;3.00;;
3131;SDS011;62090;52.330;9.104;2022-09-13T12:44:07;6.67;;;2.90;;
3131;SDS011;62090;52.330;9.104;2022-09-13T12:47:02;8.00;;;3.70;;
3131;SDS011;62090;52.330;9.104;2022-09-13T12:49:48;6.50;;;3.07;;
3131;SDS011;62090;52.330;9.104;2022-09-13T12:53:00;5.00;;;2.63;;
3131;SDS011;62090;52.330;9.104;2022-09-13T12:58:54;7.80;;;2.77;;
3131;SDS011;62090;52.330;9.104;2022-09-13T13:01:39;6.10;;;3.10;;
3131;SDS011;62090;52.330;9.104;2022-09-13T13:04:14;8.93;;;2.40;;
3131;SDS011;62090;52.330;9.104;2022-09-13T13:06:48;3.00;;;1.90;;
3131;SDS011;62090;52.330;9.104;2022-09-13T13:09:27;4.23;;;2.20;;
3131;SDS011;62090;52.330;9.104;2022-09-13T13:12:06;3.07;;;1.77;;
3131;SDS011;62090;52.330;9.104;2022-09-13T13:14:44;4.67;;;1.83;;
3131;SDS011;62090;52.330;9.104;2022-09-13T13:23:20;2.30;;;1.53;;
3131;SDS011;62090;52.330;9.104;2022-09-13T13:26:08;4.40;;;1.60;;
3131;SDS011;62090;52.330;9.104;2022-09-13T13:29:02;4.03;;;1.37;;
3131;SDS011;62090;52.330;9.104;2022-09-13T13:34:41;3.57;;;1.57;;
3131;SDS011;62090;52.330;9.104;2022-09-13T13:37:30;7.03;;;1.80;;
3131;SDS011;62090;52.330;9.104;2022-09-13T13:40:20;3.10;;;2.03;;
3131;SDS011;62090;52.330;9.104;2022-09-13T13:52:34;5.37;;;1.60;;
3131;SDS011;62090;52.330;9.104;2022-09-13T13:57:59;2.67;;;1.30;;
3131;SDS011;62090;52.330;9.104;2022-09-13T14:00:34;2.53;;;1.40;;
3131;SDS011;62090;52.330;9.104;2022-09-13T14:03:13;2.97;;;1.20;;
3131;SDS011;62090;52.330;9.104;2022-09-13T14:05:53;2.80;;;1.10;;
3131;SDS011;62090;52.330;9.104;2022-09-13T14:08:37;3.97;;;1.37;;
3131;SDS011;62090;52.330;9.104;2022-09-13T14:11:20;3.40;;;1.30;;
3131;SDS011;62090;52.330;9.104;2022-09-13T14:14:04;5.03;;;1.60;;
3131;SDS011;62090;52.330;9.104;2022-09-13T14:16:49;2.63;;;1.30;;
3131;SDS011;62090;52.330;9.104;2022-09-13T14:19:36;5.10;;;1.70;;
3131;SDS011;62090;52.330;9.104;2022-09-13T14:22:12;5.33;;;1.23;;
3131;SDS011;62090;52.330;9.104;2022-09-13T14:24:45;1.90;;;1.13;;
3131;SDS011;62090;52.330;9.104;2022-09-13T14:27:19;3.27;;;1.10;;
3131;SDS011;62090;52.330;9.104;2022-09-13T14:29:52;1.97;;;1.00;;
3131;SDS011;62090;52.330;9.104;2022-09-13T14:32:24;4.40;;;1.47;;
3131;SDS011;62090;52.330;9.104;2022-09-13T14:35:20;5.70;;;1.30;;
3131;SDS011;62090;52.330;9.104;2022-09-13T14:37:53;2.93;;;1.20;;
3131;SDS011;62090;52.330;9.104;2022-09-13T14:40:25;3.67;;;1.80;;
3131;SDS011;62090;52.330;9.104;2022-09-13T14:42:58;3.67;;;1.40;;
3131;SDS011;62090;52.330;9.104;2022-09-13T14:45:28;8.30;;;1.87;;
3131;SDS011;62090;52.330;9.104;2022-09-13T14:48:03;2.37;;;1.00;;
3131;SDS011;62090;52.330;9.104;2022-09-13T14:50:39;4.87;;;1.40;;
3131;SDS011;62090;52.330;9.104;2022-09-13T14:53:13;4.30;;;1.20;;
3131;SDS011;62090;52.330;9.104;2022-09-13T14:55:48;5.53;;;1.40;;
3131;SDS011;62090;52.330;9.104;2022-09-13T14:58:22;3.20;;;1.10;;
3131;SDS011;62090;52.330;9.104;2022-09-13T15:00:56;1.83;;;0.90;;
3131;SDS011;62090;52.330;9.104;2022-09-13T15:03:28;3.03;;;1.40;;
3131;SDS011;62090;52.330;9.104;2022-09-13T15:06:17;6.83;;;1.50;;
3131;SDS011;62090;52.330;9.104;2022-09-13T15:08:51;2.60;;;1.23;;
3131;SDS011;62090;52.330;9.104;2022-09-13T15:11:26;2.60;;;1.00;;
3131;SDS011;62090;52.330;9.104;2022-09-13T15:14:20;5.90;;;1.17;;
3131;SDS011;62090;52.330;9.104;2022-09-13T15:16:52;4.03;;;1.03;;
3131;SDS011;62090;52.330;9.104;2022-09-13T15:19:27;3.50;;;1.17;;
3131;SDS011;62090;52.330;9.104;2022-09-13T15:22:03;4.70;;;1.60;;
3131;SDS011;62090;52.330;9.104;2022-09-13T15:24:44;63.63;;;16.67;;
3131;SDS011;62090;52.330;9.104;2022-09-13T15:27:18;10.93;;;1.77;;
3131;SDS011;62090;52.330;9.104;2022-09-13T15:29:51;5.13;;;0.90;;
3131;SDS011;62090;52.330;9.104;2022-09-13T15:32:27;3.87;;;1.30;;
3131;SDS011;62090;52.330;9.104;2022-09-13T15:35:00;6.00;;;1.17;;
3131;SDS011;62090;52.330;9.104;2022-09-13T15:37:35;2.83;;;1.13;;
3131;SDS011;62090;52.330;9.104;2022-09-13T15:40:14;3.80;;;0.80;;
3131;SDS011;62090;52.330;9.104;2022-09-13T15:42:51;5.60;;;1.00;;
3131;SDS011;62090;52.330;9.104;2022-09-13T15:45:21;1.60;;;0.93;;
3131;SDS011;62090;52.330;9.104;2022-09-13T15:47:52;4.90;;;1.03;;
3131;SDS011;62090;52.330;9.104;2022-09-13T15:50:24;5.57;;;1.00;;
3131;SDS011;62090;52.330;9.104;2022-09-13T15:53:01;9.80;;;1.43;;
3131;SDS011;62090;52.330;9.104;2022-09-13T15:55:32;7.20;;;1.10;;
3131;SDS011;62090;52.330;9.104;2022-09-13T15:58:01;4.40;;;0.97;;
3131;SDS011;62090;52.330;9.104;2022-09-13T16:00:31;2.37;;;1.17;;
3131;SDS011;62090;52.330;9.104;2022-09-13T16:03:03;2.07;;;0.80;;
3131;SDS011;62090;52.330;9.104;2022-09-13T16:05:34;8.30;;;1.07;;
3131;SDS011;62090;52.330;9.104;2022-09-13T16:08:11;6.47;;;0.90;;
3131;SDS011;62090;52.330;9.104;2022-09-13T16:10:43;2.03;;;0.70;;
3131;SDS011;62090;52.330;9.104;2022-09-13T16:13:16;9.90;;;1.50;;
3131;SDS011;62090;52.330;9.104;2022-09-13T16:15:46;2.70;;;0.73;;